Time;durP1;ratioP1;P1;durP2;ratioP2;P2;SDS_P1;SDS_P2;PMS_P1;PMS_P2;Temp;Humidity;BMP_temperature;BMP_pressure;BME280_temperature;BME280_humidity;BME280_pressure;Samples;Min_cycle;Max_cycle;Signal;HPM_P1;HPM_P2
2022/11/08 00:16:05;;;;;;;3.88;2.13;;;13.60;99.90;;;;;;10455635;28;20033;-62
2022/11/08 00:21:06;;;;;;;3.72;1.50;;;13.60;99.90;;;;;;10459335;28;20720;-62
2022/11/08 00:26:06;;;;;;;6.43;2.10;;;13.60;99.90;;;;;;10454459;28;20481;-62
2022/11/08 00:31:07;;;;;;;3.65;1.80;;;13.60;99.90;;;;;;10457152;28;20073;-62
2022/11/08 00:36:08;;;;;;;4.15;1.73;;;13.60;99.90;;;;;;10460048;28;20488;-62
2022/11/08 00:41:10;;;;;;;4.03;1.60;;;13.90;99.90;;;;;;10459070;28;20044;-62
2022/11/08 00:46:11;;;;;;;4.55;1.77;;;13.60;99.90;;;;;;10460559;28;20507;-62
2022/11/08 00:51:11;;;;;;;5.28;1.73;;;13.60;99.90;;;;;;10457597;28;20032;-62
2022/11/08 00:56:12;;;;;;;5.15;1.60;;;13.50;99.90;;;;;;10456782;28;20123;-63
2022/11/08 01:01:15;;;;;;;4.53;1.83;;;13.50;99.90;;;;;;10456704;28;20103;-62
2022/11/08 01:06:18;;;;;;;3.80;1.65;;;13.50;99.90;;;;;;10455054;28;20092;-62
2022/11/08 01:11:23;;;;;;;5.05;1.73;;;13.50;99.90;;;;;;10457836;28;20037;-62
2022/11/08 01:16:27;;;;;;;4.60;2.08;;;13.40;99.90;;;;;;10456296;28;20016;-65
2022/11/08 01:21:28;;;;;;;4.03;1.63;;;13.50;99.90;;;;;;10453253;28;20949;-62
2022/11/08 01:26:29;;;;;;;3.63;1.38;;;13.50;99.90;;;;;;10454201;28;20562;-62
2022/11/08 01:31:31;;;;;;;4.60;1.80;;;13.50;99.90;;;;;;10454765;28;20041;-62
2022/11/08 01:36:32;;;;;;;5.65;1.77;;;13.50;99.90;;;;;;10457579;28;20124;-65
2022/11/08 01:41:32;;;;;;;5.88;1.90;;;13.50;99.90;;;;;;10459382;28;20048;-62
2022/11/08 01:46:38;;;;;;;3.90;1.35;;;13.50;99.90;;;;;;10455483;28;20028;-62
2022/11/08 01:51:51;;;;;;;2.50;1.45;;;13.50;99.90;;;;;;10453661;28;20385;-61
2022/11/08 01:56:52;;;;;;;5.07;1.70;;;13.50;99.90;;;;;;10452966;28;20044;-62
2022/11/08 02:01:54;;;;;;;5.80;1.65;;;13.50;99.90;;;;;;10454570;28;20057;-62
2022/11/08 02:06:55;;;;;;;5.03;1.60;;;13.50;99.90;;;;;;10454798;28;20029;-62
2022/11/08 02:11:57;;;;;;;6.47;1.80;;;13.40;99.90;;;;;;10454930;28;20079;-61
2022/11/08 02:16:58;;;;;;;6.78;1.73;;;13.50;99.90;;;;;;10452652;28;20029;-62
2022/11/08 02:22:04;;;;;;;4.43;1.60;;;13.40;99.90;;;;;;10453738;28;20493;-61
2022/11/08 02:27:05;;;;;;;5.45;1.95;;;13.40;99.90;;;;;;10451549;28;20033;-61
2022/11/08 02:32:06;;;;;;;6.32;2.28;;;13.40;99.90;;;;;;10454179;28;20561;-62
2022/11/08 02:37:07;;;;;;;4.93;1.58;;;13.40;99.90;;;;;;10453478;28;20048;-61
2022/11/08 02:42:17;;;;;;;5.90;2.67;;;13.40;99.90;;;;;;10436419;28;20079;-62
2022/11/08 02:47:18;;;;;;;5.32;1.73;;;13.40;99.90;;;;;;10448880;28;20108;-62
2022/11/08 02:52:18;;;;;;;8.88;2.05;;;13.40;99.90;;;;;;10451719;28;20375;-62
2022/11/08 02:57:19;;;;;;;4.43;1.80;;;13.30;99.90;;;;;;10453045;28;20021;-62
2022/11/08 03:02:20;;;;;;;5.57;1.75;;;13.30;99.90;;;;;;10452642;28;20124;-62
2022/11/08 03:07:20;;;;;;;4.45;1.80;;;13.30;99.90;;;;;;10455988;28;20057;-62
2022/11/08 03:12:21;;;;;;;4.03;1.80;;;13.30;99.90;;;;;;10450302;28;20465;-62
2022/11/08 03:17:22;;;;;;;5.72;1.58;;;13.30;99.90;;;;;;10451264;28;20304;-61
2022/11/08 03:22:22;;;;;;;3.83;1.50;;;13.30;99.90;;;;;;10451042;28;20022;-62
2022/11/08 03:27:24;;;;;;;6.00;2.13;;;13.30;99.90;;;;;;10452817;28;20028;-61
2022/11/08 03:32:24;;;;;;;6.65;1.98;;;13.30;99.90;;;;;;10454783;28;20060;-62
2022/11/08 03:37:25;;;;;;;7.47;2.10;;;13.30;99.90;;;;;;10451235;28;20182;-63
2022/11/08 03:42:26;;;;;;;3.63;1.75;;;13.30;99.90;;;;;;10450489;28;20041;-62
2022/11/08 03:47:27;;;;;;;2.40;1.60;;;13.20;99.90;;;;;;10456983;28;20033;-62
2022/11/08 03:52:27;;;;;;;3.55;1.48;;;13.20;99.90;;;;;;10460044;28;20029;-62
2022/11/08 03:57:28;;;;;;;3.42;1.45;;;13.20;99.90;;;;;;10462741;28;20056;-62
2022/11/08 04:02:29;;;;;;;4.55;1.60;;;13.20;99.90;;;;;;10459909;28;20082;-61
2022/11/08 04:07:29;;;;;;;8.50;1.90;;;13.20;99.90;;;;;;10461000;28;20037;-62
2022/11/08 04:23:11;;;;;;;3.53;1.33;;;13.20;99.90;;;;;;10456881;28;20040;-61
2022/11/08 04:28:11;;;;;;;6.07;2.15;;;13.10;99.90;;;;;;10458961;28;20093;-62
2022/11/08 04:33:12;;;;;;;3.15;1.70;;;13.10;99.90;;;;;;10456084;28;20029;-62
2022/11/08 04:38:13;;;;;;;3.03;1.60;;;13.20;99.90;;;;;;10456661;28;20025;-61
2022/11/08 04:43:13;;;;;;;5.00;1.60;;;13.10;99.90;;;;;;10456102;28;20049;-62
2022/11/08 04:48:14;;;;;;;5.28;1.98;;;13.10;99.90;;;;;;10456904;28;20048;-61
2022/11/08 04:53:14;;;;;;;5.65;1.60;;;13.10;99.90;;;;;;10456227;28;20037;-62
2022/11/08 04:58:15;;;;;;;4.20;1.60;;;13.10;99.90;;;;;;10456189;28;20025;-61
2022/11/08 05:03:16;;;;;;;5.15;1.63;;;13.10;99.90;;;;;;10458091;28;20401;-62
2022/11/08 05:08:16;;;;;;;5.40;1.30;;;13.10;99.90;;;;;;10455470;28;20037;-61
2022/11/08 05:13:17;;;;;;;5.38;1.40;;;13.10;99.90;;;;;;10450856;28;20033;-62
2022/11/08 05:18:18;;;;;;;3.70;1.40;;;13.10;99.90;;;;;;10455431;28;20462;-61
2022/11/08 05:23:25;;;;;;;4.05;2.05;;;13.10;99.90;;;;;;10453885;28;20024;-62
2022/11/08 05:28:25;;;;;;;5.07;1.42;;;13.10;99.90;;;;;;10452170;28;20045;-62
2022/11/08 05:33:26;;;;;;;2.35;1.40;;;13.00;99.90;;;;;;10455475;28;20412;-62
2022/11/08 05:38:28;;;;;;;3.35;1.50;;;13.00;99.90;;;;;;10437126;28;20028;-63
2022/11/08 05:43:29;;;;;;;5.30;1.73;;;13.00;99.90;;;;;;10454218;28;20055;-62
2022/11/08 05:48:30;;;;;;;3.13;1.48;;;13.00;99.90;;;;;;10454162;28;20041;-61
2022/11/08 05:53:31;;;;;;;4.40;1.50;;;13.00;99.90;;;;;;10453984;28;20137;-61
2022/11/08 05:58:33;;;;;;;2.95;1.65;;;13.00;99.90;;;;;;10456448;28;20511;-62
2022/11/08 06:03:34;;;;;;;3.63;1.30;;;13.00;99.90;;;;;;10457550;28;20033;-62
2022/11/08 06:08:35;;;;;;;3.72;1.30;;;13.00;99.90;;;;;;10454828;28;20068;-61
2022/11/08 06:13:36;;;;;;;5.03;2.20;;;12.90;99.90;;;;;;10452887;28;20396;-63
2022/11/08 06:18:38;;;;;;;2.95;1.17;;;12.90;99.90;;;;;;10453535;28;20029;-62
2022/11/08 06:23:39;;;;;;;4.07;1.33;;;12.90;99.90;;;;;;10454853;28;20025;-61
2022/11/08 06:28:39;;;;;;;2.50;1.10;;;13.00;99.90;;;;;;10449440;28;20060;-61
2022/11/08 06:33:40;;;;;;;2.05;1.70;;;12.90;99.90;;;;;;10454322;28;20496;-61
2022/11/08 06:38:41;;;;;;;2.58;1.58;;;12.90;99.90;;;;;;10454607;28;20029;-63
2022/11/08 06:43:42;;;;;;;2.42;1.40;;;12.90;99.90;;;;;;10451678;28;20052;-62
2022/11/08 06:48:43;;;;;;;3.85;1.40;;;12.90;99.90;;;;;;10444912;28;20064;-62
2022/11/08 06:53:44;;;;;;;2.70;1.40;;;12.90;99.90;;;;;;10453311;28;20029;-64
2022/11/08 06:58:46;;;;;;;3.35;1.60;;;12.90;99.90;;;;;;10454882;28;20375;-63
2022/11/08 07:03:47;;;;;;;2.42;1.35;;;12.90;99.90;;;;;;10438230;28;20031;-61
2022/11/08 07:08:48;;;;;;;1.95;1.25;;;12.90;99.90;;;;;;10363952;28;20480;-61
2022/11/08 07:13:48;;;;;;;4.75;1.70;;;12.90;99.90;;;;;;10357546;28;20049;-61
2022/11/08 07:18:50;;;;;;;5.13;1.58;;;12.90;99.90;;;;;;10368062;28;20038;-62
2022/11/08 07:23:50;;;;;;;1.90;1.35;;;12.90;99.90;;;;;;10372375;28;20059;-62
2022/11/08 07:28:51;;;;;;;5.88;1.80;;;12.90;99.90;;;;;;10378872;28;20045;-63
2022/11/08 07:33:52;;;;;;;4.57;1.85;;;12.90;99.90;;;;;;10375956;28;20048;-65
2022/11/08 07:38:53;;;;;;;4.47;2.10;;;12.90;99.90;;;;;;10379925;28;20040;-61
2022/11/08 07:43:55;;;;;;;3.33;1.60;;;13.20;99.90;;;;;;10377887;28;20215;-63
2022/11/08 07:48:56;;;;;;;6.35;2.10;;;12.90;99.90;;;;;;10372431;28;20087;-62
2022/11/08 07:53:57;;;;;;;2.90;1.80;;;12.90;99.90;;;;;;10380470;28;20884;-62
2022/11/08 07:58:57;;;;;;;4.18;1.80;;;12.90;99.90;;;;;;10376587;28;20029;-61
2022/11/08 08:03:58;;;;;;;4.50;1.77;;;12.90;99.90;;;;;;10370711;28;20082;-61
2022/11/08 08:09:00;;;;;;;3.05;2.00;;;13.00;99.90;;;;;;10372899;28;20631;-61
2022/11/08 08:14:01;;;;;;;3.78;1.75;;;13.00;99.90;;;;;;10379919;28;20366;-63
2022/11/08 08:19:02;;;;;;;4.68;1.88;;;13.00;99.90;;;;;;10361275;28;20037;-61
2022/11/08 08:24:04;;;;;;;5.00;1.90;;;13.00;99.90;;;;;;10364781;28;20477;-62
2022/11/08 08:29:04;;;;;;;4.50;2.25;;;13.00;99.90;;;;;;10368977;28;20100;-62
2022/11/08 08:34:05;;;;;;;5.28;2.00;;;13.10;99.90;;;;;;10369614;28;20544;-62
2022/11/08 08:39:06;;;;;;;5.95;2.25;;;13.10;99.90;;;;;;10369755;28;20028;-61
2022/11/08 08:44:06;;;;;;;6.05;1.63;;;13.10;99.90;;;;;;10371028;28;20509;-61
2022/11/08 08:49:07;;;;;;;5.22;2.30;;;13.20;99.90;;;;;;10361718;28;20045;-61
2022/11/08 08:54:08;;;;;;;3.80;2.13;;;13.10;99.90;;;;;;10360237;28;20514;-62
2022/11/08 08:59:09;;;;;;;3.67;2.15;;;13.20;99.90;;;;;;10359206;28;20151;-61
2022/11/08 09:04:09;;;;;;;4.40;1.70;;;13.30;99.90;;;;;;10371061;28;20106;-62
2022/11/08 09:09:11;;;;;;;4.53;1.60;;;13.30;99.90;;;;;;10346923;28;20040;-62
2022/11/08 09:14:12;;;;;;;5.47;1.70;;;13.30;99.90;;;;;;10344463;28;20952;-63
2022/11/08 09:19:12;;;;;;;2.70;1.77;;;13.40;99.90;;;;;;10363910;28;20395;-62
2022/11/08 09:24:13;;;;;;;4.22;1.67;;;13.40;99.90;;;;;;10377655;28;20131;-63
2022/11/08 09:29:14;;;;;;;4.68;1.50;;;13.40;99.90;;;;;;10372154;28;20137;-61
2022/11/08 09:34:15;;;;;;;2.80;1.45;;;13.40;99.90;;;;;;10359518;28;20039;-62
2022/11/08 09:39:15;;;;;;;3.95;1.50;;;13.40;99.90;;;;;;10352120;28;20483;-63
2022/11/08 09:44:53;;;;;;;2.72;1.48;;;13.90;99.90;;;;;;10349229;28;20055;-64
2022/11/08 09:50:12;;;;;;;3.70;1.58;;;13.40;99.90;;;;;;10344922;28;20158;-63
2022/11/08 09:55:23;;;;;;;2.60;1.25;;;13.50;99.90;;;;;;10344946;28;20095;-63
2022/11/08 10:00:24;;;;;;;7.07;1.60;;;13.40;99.90;;;;;;10348824;28;20453;-63
2022/11/08 10:05:27;;;;;;;2.95;1.40;;;13.40;99.90;;;;;;10361865;28;20078;-63
2022/11/08 10:10:42;;;;;;;5.43;1.58;;;13.40;99.90;;;;;;10368862;28;20045;-62
2022/11/08 10:16:14;;;;;;;2.95;1.67;;;13.50;99.90;;;;;;10361084;28;20563;-69
2022/11/08 10:21:52;;;;;;;3.55;1.80;;;13.50;99.90;;;;;;10365158;28;20040;-61
2022/11/08 10:26:56;;;;;;;4.53;1.60;;;13.50;99.90;;;;;;10372146;28;20037;-62
2022/11/08 10:32:04;;;;;;;5.03;1.70;;;13.40;99.90;;;;;;10367528;28;20074;-63
2022/11/08 10:37:10;;;;;;;6.90;1.97;;;13.40;99.90;;;;;;10371313;28;20461;-65
2022/11/08 10:42:30;;;;;;;7.30;1.50;;;13.40;99.90;;;;;;10374137;28;20831;-63
2022/11/08 10:47:32;;;;;;;7.22;2.00;;;13.40;99.90;;;;;;10366530;28;20329;-63
2022/11/08 10:52:41;;;;;;;4.60;1.50;;;13.40;99.90;;;;;;10373734;28;20079;-62
2022/11/08 10:57:43;;;;;;;4.30;1.70;;;13.40;99.90;;;;;;10369959;28;20087;-63
2022/11/08 11:02:47;;;;;;;2.28;1.40;;;13.50;99.90;;;;;;10367923;28;20484;-63
2022/11/08 11:08:13;;;;;;;3.13;1.55;;;13.50;99.90;;;;;;10366528;28;20555;-62
2022/11/08 11:13:25;;;;;;;3.03;1.33;;;13.60;99.90;;;;;;10364845;28;20020;-61
2022/11/08 11:18:38;;;;;;;7.60;1.45;;;13.60;99.90;;;;;;10375914;28;20059;-62
2022/11/08 11:23:40;;;;;;;2.97;1.30;;;13.60;99.80;;;;;;10371304;28;20302;-63
2022/11/08 11:28:59;;;;;;;3.60;2.25;;;13.70;99.80;;;;;;10371361;28;20492;-63
2022/11/08 11:34:17;;;;;;;2.58;1.58;;;13.70;99.70;;;;;;10364501;28;20517;-62
2022/11/08 11:39:31;;;;;;;3.45;1.42;;;13.70;99.60;;;;;;10364456;28;20056;-62
2022/11/08 11:44:52;;;;;;;2.80;1.30;;;13.70;99.70;;;;;;10366786;28;20812;-62
2022/11/08 11:49:54;;;;;;;2.45;1.40;;;13.70;99.70;;;;;;10368728;28;20401;-62
2022/11/08 11:54:56;;;;;;;2.22;1.60;;;13.80;99.80;;;;;;10370828;28;20584;-62
2022/11/08 12:00:23;;;;;;;2.92;1.50;;;13.80;99.70;;;;;;10365323;28;20039;-62
2022/11/08 12:05:48;;;;;;;2.95;1.63;;;13.80;99.50;;;;;;10368693;28;20154;-61
2022/11/08 12:11:00;;;;;;;3.95;1.20;;;13.80;99.50;;;;;;10378183;28;20499;-62
2022/11/08 12:16:15;;;;;;;2.75;1.40;;;13.80;99.60;;;;;;10374560;28;20033;-62
2022/11/08 12:21:41;;;;;;;3.85;1.30;;;13.80;99.70;;;;;;10369893;28;20029;-62
2022/11/08 12:26:53;;;;;;;3.22;1.40;;;13.80;99.60;;;;;;10360725;28;20033;-62
2022/11/08 12:32:23;;;;;;;2.78;1.20;;;13.80;99.70;;;;;;10376066;28;20126;-62
2022/11/08 12:38:04;;;;;;;2.13;1.30;;;13.80;99.70;;;;;;10369147;28;20288;-63
2022/11/08 12:43:27;;;;;;;2.22;1.42;;;13.80;99.70;;;;;;10369762;28;20602;-63
2022/11/08 12:48:47;;;;;;;2.13;1.30;;;13.80;99.70;;;;;;10374095;28;20689;-63
2022/11/08 12:54:24;;;;;;;3.03;1.38;;;13.90;99.80;;;;;;10375278;28;20757;-62
2022/11/08 12:59:35;;;;;;;2.65;1.42;;;13.90;99.70;;;;;;10370195;28;20032;-62
2022/11/08 13:04:48;;;;;;;2.92;1.73;;;13.90;99.80;;;;;;10368056;28;20067;-62
2022/11/08 13:10:10;;;;;;;2.28;1.42;;;14.00;99.70;;;;;;10371878;28;20442;-62
2022/11/08 13:15:21;;;;;;;3.10;1.20;;;14.00;99.70;;;;;;10371449;28;20335;-63
2022/11/08 13:20:47;;;;;;;1.65;1.00;;;14.00;99.70;;;;;;10370578;28;20258;-63
2022/11/08 13:25:48;;;;;;;4.90;1.83;;;14.00;99.60;;;;;;10376852;28;20032;-62
2022/11/08 13:30:59;;;;;;;1.60;1.20;;;14.00;99.70;;;;;;10375077;28;20040;-62
2022/11/08 13:36:41;;;;;;;2.88;1.40;;;14.00;99.70;;;;;;10371117;28;20024;-62
2022/11/08 13:42:23;;;;;;;1.60;1.13;;;14.00;99.70;;;;;;10375935;28;20049;-62
2022/11/08 13:47:33;;;;;;;3.97;1.27;;;14.00;99.70;;;;;;10365977;28;20218;-62
2022/11/08 13:53:00;;;;;;;4.10;1.50;;;14.00;99.70;;;;;;10372558;28;20056;-61
2022/11/08 13:58:01;;;;;;;3.33;1.45;;;14.00;99.70;;;;;;10358264;28;20135;-61
2022/11/08 14:03:45;;;;;;;3.00;1.08;;;14.00;99.80;;;;;;10371267;28;20039;-62
2022/11/08 14:08:54;;;;;;;2.80;1.40;;;14.00;99.70;;;;;;10369304;28;20083;-62
2022/11/08 14:14:11;;;;;;;3.80;1.45;;;14.00;99.90;;;;;;10365366;28;20024;-61
2022/11/08 14:19:24;;;;;;;3.17;1.48;;;14.00;99.90;;;;;;10363154;28;20056;-62
2022/11/08 14:24:33;;;;;;;3.78;1.42;;;14.00;99.80;;;;;;10370003;28;20618;-61
2022/11/08 14:29:34;;;;;;;4.10;1.33;;;14.00;99.90;;;;;;10370669;28;20280;-62
2022/11/08 14:34:36;;;;;;;3.33;1.50;;;14.00;99.90;;;;;;10369524;28;20041;-62
2022/11/08 14:39:37;;;;;;;2.28;1.17;;;14.00;99.90;;;;;;10371644;28;20025;-62
2022/11/08 14:44:42;;;;;;;1.83;1.20;;;14.00;99.90;;;;;;10352957;28;20040;-62
2022/11/08 14:49:46;;;;;;;2.53;1.75;;;14.00;99.90;;;;;;10361059;28;20037;-62
2022/11/08 14:54:57;;;;;;;2.17;1.23;;;14.00;99.90;;;;;;10370393;28;20504;-62
2022/11/08 15:00:00;;;;;;;12.07;2.00;;;14.00;99.90;;;;;;10373774;28;20901;-61
2022/11/08 15:05:01;;;;;;;2.03;1.38;;;14.00;99.90;;;;;;10344247;28;20199;-60
2022/11/08 15:10:09;;;;;;;4.53;1.40;;;14.00;99.90;;;;;;10358336;28;20542;-61
2022/11/08 15:15:23;;;;;;;2.75;1.73;;;14.00;99.90;;;;;;10361930;28;20044;-62
2022/11/08 15:20:24;;;;;;;7.47;1.80;;;14.00;99.90;;;;;;10358408;28;20029;-61
2022/11/08 15:25:34;;;;;;;2.78;1.67;;;14.00;99.90;;;;;;10365402;28;20118;-62
2022/11/08 15:30:40;;;;;;;2.67;1.42;;;14.00;99.90;;;;;;10367442;28;20457;-61
2022/11/08 15:35:40;;;;;;;1.98;1.35;;;13.90;99.90;;;;;;10364147;28;20159;-61
2022/11/08 15:40:52;;;;;;;20.33;2.22;;;13.90;99.90;;;;;;10369702;28;20064;-61
2022/11/08 15:45:53;;;;;;;3.55;1.70;;;13.90;99.90;;;;;;10374493;28;20593;-61
2022/11/08 15:50:57;;;;;;;3.40;1.33;;;13.80;99.90;;;;;;10396541;28;20372;-61
2022/11/08 15:56:01;;;;;;;4.75;1.65;;;13.90;99.90;;;;;;10374815;28;20021;-62
2022/11/08 16:01:03;;;;;;;4.70;1.40;;;13.90;99.90;;;;;;10378727;28;20037;-62
2022/11/08 16:06:04;;;;;;;4.25;1.30;;;13.90;99.90;;;;;;10372655;28;20548;-61
2022/11/08 16:11:18;;;;;;;3.47;1.40;;;13.90;99.90;;;;;;10368344;28;20040;-61
2022/11/08 16:16:19;;;;;;;3.92;1.35;;;14.10;99.90;;;;;;10358586;28;20309;-60
2022/11/08 16:21:20;;;;;;;2.58;1.52;;;13.80;99.90;;;;;;10363816;28;20546;-62
2022/11/08 16:26:20;;;;;;;3.35;1.50;;;13.90;99.90;;;;;;10451978;28;20033;-61
2022/11/08 16:31:21;;;;;;;4.75;1.50;;;13.90;99.90;;;;;;10468114;28;20423;-61
2022/11/08 16:36:24;;;;;;;4.38;1.50;;;13.90;99.90;;;;;;10457455;28;20124;-64
2022/11/08 16:41:25;;;;;;;4.43;1.33;;;13.90;99.90;;;;;;10455021;28;20428;-62
2022/11/08 16:46:27;;;;;;;3.33;1.70;;;13.90;99.90;;;;;;10453634;28;20083;-61
2022/11/08 16:51:29;;;;;;;3.85;1.48;;;13.90;99.90;;;;;;10453664;28;20037;-61
2022/11/08 16:56:30;;;;;;;4.50;1.40;;;13.90;99.90;;;;;;10453395;28;20029;-61
2022/11/08 17:01:33;;;;;;;2.33;1.40;;;13.90;99.90;;;;;;10455145;28;20485;-62
2022/11/08 17:06:33;;;;;;;2.60;1.52;;;13.90;99.90;;;;;;10461069;28;20053;-61
2022/11/08 17:11:34;;;;;;;3.47;1.50;;;13.90;99.90;;;;;;10456931;28;20041;-61
2022/11/08 17:16:35;;;;;;;2.83;1.50;;;13.80;99.90;;;;;;10448697;28;20021;-61
2022/11/08 17:21:35;;;;;;;2.90;1.50;;;13.80;99.90;;;;;;10452439;28;20402;-63
2022/11/08 17:26:36;;;;;;;4.85;1.77;;;13.80;99.90;;;;;;10454105;28;20037;-63
2022/11/08 17:31:37;;;;;;;4.22;1.58;;;13.80;99.90;;;;;;10454443;28;20106;-62
2022/11/08 17:36:38;;;;;;;2.78;1.30;;;13.80;99.90;;;;;;10449203;28;20059;-62
2022/11/08 17:41:39;;;;;;;4.00;1.60;;;13.80;99.90;;;;;;10444809;28;20041;-62
2022/11/08 17:46:39;;;;;;;3.40;1.50;;;13.80;99.90;;;;;;10443842;28;20025;-61
2022/11/08 17:51:40;;;;;;;3.25;1.45;;;13.80;99.90;;;;;;10451187;28;20083;-62
2022/11/08 17:56:41;;;;;;;3.17;1.58;;;13.80;99.90;;;;;;10454421;28;20046;-62
2022/11/08 18:01:42;;;;;;;2.83;1.50;;;13.80;99.90;;;;;;10444266;28;20043;-62
2022/11/08 18:06:42;;;;;;;4.65;1.70;;;13.80;99.90;;;;;;10451422;28;20025;-61
2022/11/08 18:11:46;;;;;;;3.17;1.30;;;13.80;99.90;;;;;;10452756;28;20045;-62
2022/11/08 18:16:47;;;;;;;3.22;1.67;;;13.80;99.90;;;;;;10453499;28;20028;-62
2022/11/08 18:21:48;;;;;;;4.95;1.70;;;13.80;99.90;;;;;;10447818;28;20035;-61
2022/11/08 18:26:49;;;;;;;3.92;1.60;;;13.80;99.90;;;;;;10443908;28;20021;-62
2022/11/08 18:31:50;;;;;;;4.57;1.80;;;13.80;99.90;;;;;;10448101;28;20467;-64
2022/11/08 18:36:50;;;;;;;5.35;1.92;;;13.80;99.90;;;;;;10449388;28;20599;-62
2022/11/08 18:41:51;;;;;;;3.58;1.70;;;13.80;99.90;;;;;;10440885;28;20572;-61
2022/11/08 18:46:52;;;;;;;5.45;1.90;;;13.80;99.90;;;;;;10453497;28;20035;-62
2022/11/08 18:51:53;;;;;;;3.67;1.90;;;13.80;99.90;;;;;;10454010;28;20085;-62
2022/11/08 18:56:53;;;;;;;5.60;2.00;;;13.80;99.90;;;;;;10435103;28;20033;-62
2022/11/08 19:01:54;;;;;;;7.88;2.42;;;13.80;99.90;;;;;;10437465;28;20028;-61
2022/11/08 19:06:55;;;;;;;3.55;1.85;;;13.80;99.90;;;;;;10439971;28;20280;-62
2022/11/08 19:11:56;;;;;;;5.95;2.25;;;13.80;99.90;;;;;;10450354;28;20325;-61
2022/11/08 19:16:57;;;;;;;6.00;2.08;;;13.80;99.90;;;;;;10441935;28;20504;-61
2022/11/08 19:21:57;;;;;;;3.92;2.10;;;13.80;99.90;;;;;;10446850;28;20188;-61
2022/11/08 19:26:58;;;;;;;3.67;2.15;;;13.80;99.90;;;;;;10455568;28;20021;-61
2022/11/08 19:31:59;;;;;;;4.70;2.17;;;13.80;99.90;;;;;;10438706;28;20033;-64
2022/11/08 19:37:00;;;;;;;3.17;2.05;;;13.80;99.90;;;;;;10442283;28;20025;-63
2022/11/08 19:42:00;;;;;;;2.83;1.90;;;13.80;99.90;;;;;;10434457;28;20055;-63
2022/11/08 19:47:01;;;;;;;4.80;2.05;;;13.80;99.90;;;;;;10442287;28;20275;-66
2022/11/08 19:52:02;;;;;;;7.25;2.00;;;13.80;99.90;;;;;;10436856;28;20055;-60
2022/11/08 19:57:03;;;;;;;5.32;1.92;;;13.80;99.90;;;;;;10427331;28;20022;-64
2022/11/08 20:02:03;;;;;;;3.20;2.03;;;13.80;99.90;;;;;;10449976;28;20021;-63
2022/11/08 20:07:04;;;;;;;7.35;2.15;;;13.80;99.90;;;;;;10437536;28;20051;-61
2022/11/08 20:12:05;;;;;;;2.22;1.63;;;13.80;99.90;;;;;;10446762;28;20041;-63
2022/11/08 20:17:06;;;;;;;2.72;1.85;;;13.80;99.90;;;;;;10439617;28;20490;-64
2022/11/08 20:22:07;;;;;;;2.20;1.77;;;13.70;99.90;;;;;;10443426;28;20666;-62
2022/11/08 20:27:08;;;;;;;4.22;1.80;;;13.70;99.90;;;;;;10449304;28;20492;-61
2022/11/08 20:32:09;;;;;;;2.75;1.65;;;13.80;99.90;;;;;;10445501;28;20039;-62
2022/11/08 20:37:13;;;;;;;3.50;1.85;;;13.70;99.90;;;;;;10433510;28;20053;-62
2022/11/08 20:42:17;;;;;;;7.85;2.05;;;13.70;99.90;;;;;;10432573;28;20037;-62
2022/11/08 20:47:18;;;;;;;2.58;1.88;;;13.70;99.90;;;;;;10459871;28;20024;-62
2022/11/08 20:52:22;;;;;;;3.92;1.90;;;13.70;99.90;;;;;;10450003;28;20042;-62
2022/11/08 20:57:22;;;;;;;4.05;1.90;;;13.70;99.90;;;;;;10443085;28;20163;-62
2022/11/08 21:02:23;;;;;;;2.70;2.00;;;13.70;99.90;;;;;;10443481;28;20028;-62
2022/11/08 21:07:24;;;;;;;3.90;2.63;;;13.70;99.90;;;;;;10443236;28;20382;-62
2022/11/08 21:12:25;;;;;;;3.70;1.63;;;13.70;99.90;;;;;;10436021;28;20074;-62
2022/11/08 21:17:25;;;;;;;3.03;2.05;;;13.70;99.90;;;;;;10425675;28;20028;-62
2022/11/08 21:22:26;;;;;;;4.68;1.98;;;13.70;99.90;;;;;;10429454;28;20421;-61
2022/11/08 21:27:27;;;;;;;2.85;1.77;;;13.70;99.90;;;;;;10446309;28;20060;-62
2022/11/08 21:32:27;;;;;;;2.83;1.70;;;13.70;99.90;;;;;;10438964;28;20040;-61
2022/11/08 21:37:28;;;;;;;3.00;1.73;;;13.70;99.90;;;;;;10440547;28;20473;-62
2022/11/08 21:42:29;;;;;;;5.25;2.05;;;13.70;99.90;;;;;;10441015;28;20477;-62
2022/11/08 21:47:30;;;;;;;5.43;1.92;;;13.70;99.90;;;;;;10443438;28;20548;-62
2022/11/08 21:52:32;;;;;;;2.92;1.77;;;13.70;99.90;;;;;;10440635;28;20401;-61
2022/11/08 21:57:32;;;;;;;2.35;1.48;;;13.70;99.90;;;;;;10438524;28;20040;-61
2022/11/08 22:02:34;;;;;;;3.67;1.67;;;13.70;99.90;;;;;;10444182;28;20032;-62
2022/11/08 22:07:35;;;;;;;3.05;1.48;;;13.70;99.90;;;;;;10435367;28;20053;-61
2022/11/08 22:12:37;;;;;;;3.28;1.60;;;13.70;99.90;;;;;;10430994;28;20072;-61
2022/11/08 22:17:42;;;;;;;5.35;2.05;;;13.70;99.90;;;;;;10434399;28;20021;-61
2022/11/08 22:22:43;;;;;;;4.57;1.80;;;13.70;99.90;;;;;;10449604;28;20033;-61
2022/11/08 22:27:44;;;;;;;3.03;1.70;;;13.70;99.90;;;;;;10457291;28;20107;-62
2022/11/08 22:32:44;;;;;;;4.75;1.80;;;13.70;99.90;;;;;;10435415;28;20025;-61
2022/11/08 22:37:46;;;;;;;4.53;1.85;;;13.70;99.90;;;;;;10433126;28;20398;-62
2022/11/08 22:42:46;;;;;;;3.78;2.00;;;13.70;99.90;;;;;;10438595;28;20052;-62
2022/11/08 22:47:47;;;;;;;3.72;1.85;;;13.70;99.90;;;;;;10443397;28;20032;-61
2022/11/08 22:52:48;;;;;;;2.17;1.50;;;13.70;99.90;;;;;;10434052;28;20059;-62
2022/11/08 22:57:49;;;;;;;3.17;1.40;;;13.60;99.90;;;;;;10446730;28;20028;-61
2022/11/08 23:02:50;;;;;;;3.15;1.83;;;13.60;99.90;;;;;;10442445;28;20106;-62
2022/11/08 23:07:50;;;;;;;2.80;1.70;;;13.60;99.90;;;;;;10454796;28;20077;-62
2022/11/08 23:18:10;;;;;;;3.65;1.50;;;13.60;99.90;;;;;;10457734;28;20021;-62
2022/11/08 23:33:49;;;;;;;3.22;1.52;;;13.60;99.90;;;;;;10449782;28;20032;-62
2022/11/08 23:38:50;;;;;;;1.67;1.48;;;13.60;99.90;;;;;;10452388;28;20055;-64
2022/11/08 23:49:10;;;;;;;2.67;1.33;;;13.60;99.90;;;;;;10452100;28;20049;-62
2022/11/08 23:54:11;;;;;;;5.82;1.67;;;13.60;99.90;;;;;;10452281;28;20103;-61
2022/11/08 23:59:13;;;;;;;4.75;1.67;;;13.60;99.90;;;;;;10449225;28;20445;-61
